createdAt,value
2022-11-27T00:00:29.295Z,2.35
2022-11-27T00:03:32.007Z,2.37
2022-11-27T00:06:36.771Z,2.40
2022-11-27T00:09:39.842Z,2.33
2022-11-27T00:12:42.900Z,2.33
2022-11-27T00:15:45.602Z,2.27
2022-11-27T00:18:48.256Z,2.30
2022-11-27T00:21:52.305Z,2.26
2022-11-27T00:24:55.231Z,2.30
2022-11-27T00:27:57.896Z,2.33
2022-11-27T00:31:01.017Z,2.29
2022-11-27T00:34:07.751Z,2.36
2022-11-27T00:37:12.215Z,2.38
2022-11-27T00:40:15.548Z,2.31
2022-11-27T00:43:18.211Z,2.22
2022-11-27T00:46:27.824Z,2.03
2022-11-27T00:49:32.177Z,1.97
2022-11-27T00:52:36.207Z,2.01
2022-11-27T00:55:38.975Z,1.91
2022-11-27T00:58:41.571Z,1.90
2022-11-27T01:01:45.029Z,1.96
2022-11-27T01:04:48.022Z,1.93
2022-11-27T01:07:52.129Z,1.88
2022-11-27T01:10:56.570Z,1.82
2022-11-27T01:14:01.421Z,1.72
2022-11-27T01:17:04.748Z,1.90
2022-11-27T01:20:08.771Z,1.84
2022-11-27T01:23:12.775Z,1.90
2022-11-27T01:26:15.549Z,1.91
2022-11-27T01:29:18.199Z,1.80
2022-11-27T01:32:20.751Z,1.64
2022-11-27T01:35:23.399Z,1.74
2022-11-27T01:38:28.163Z,1.79
2022-11-27T01:41:32.376Z,1.68
2022-11-27T01:44:50.290Z,1.74
2022-11-27T01:47:55.026Z,1.65
2022-11-27T01:50:57.731Z,1.57
2022-11-27T01:54:01.860Z,1.42
2022-11-27T01:57:08.200Z,1.37
2022-11-27T02:00:14.103Z,1.53
2022-11-27T02:03:16.988Z,1.50
2022-11-27T02:06:19.823Z,1.50
2022-11-27T02:09:23.852Z,1.45
2022-11-27T02:12:28.383Z,1.45
2022-11-27T02:15:36.444Z,1.49
2022-11-27T02:18:43.706Z,1.50
2022-11-27T02:21:49.474Z,1.45
2022-11-27T02:24:57.742Z,1.41
2022-11-27T02:28:14.651Z,1.42
2022-11-27T02:31:23.739Z,1.33
2022-11-27T02:34:29.366Z,1.31
2022-11-27T02:37:35.010Z,1.27
2022-11-27T02:40:40.244Z,1.32
2022-11-27T02:43:46.239Z,1.27
2022-11-27T02:46:50.996Z,1.25
2022-11-27T02:49:57.013Z,1.19
2022-11-27T02:53:02.863Z,1.22
2022-11-27T02:56:08.193Z,1.17
2022-11-27T02:59:13.349Z,1.13
2022-11-27T03:02:20.114Z,0.97
2022-11-27T03:05:24.495Z,0.96
2022-11-27T03:08:32.081Z,1.04
2022-11-27T03:11:35.069Z,1.02
2022-11-27T03:14:38.890Z,1.01
2022-11-27T03:17:53.182Z,1.00
2022-11-27T03:21:02.255Z,0.87
2022-11-27T03:24:05.624Z,0.76
2022-11-27T03:27:08.385Z,0.74
2022-11-27T03:30:12.267Z,0.92
2022-11-27T03:33:16.142Z,0.96
2022-11-27T03:36:20.668Z,0.94
2022-11-27T03:39:23.738Z,0.94
2022-11-27T03:42:30.421Z,0.94
2022-11-27T03:45:36.753Z,0.96
2022-11-27T03:48:44.990Z,1.03
2022-11-27T03:51:52.521Z,1.07
2022-11-27T03:55:00.878Z,1.01
2022-11-27T03:58:06.784Z,0.83
2022-11-27T04:01:11.774Z,0.87
2022-11-27T04:04:15.995Z,0.86
2022-11-27T04:07:18.727Z,0.89
2022-11-27T04:10:21.392Z,0.80
2022-11-27T04:13:24.025Z,0.67
2022-11-27T04:16:26.734Z,0.59
2022-11-27T04:19:30.725Z,0.70
2022-11-27T04:22:33.136Z,0.77
2022-11-27T04:25:35.890Z,0.72
2022-11-27T04:28:38.619Z,0.71
2022-11-27T04:31:41.292Z,0.58
2022-11-27T04:34:45.505Z,0.51
2022-11-27T04:37:48.111Z,0.47
2022-11-27T04:40:52.591Z,0.57
2022-11-27T04:43:55.289Z,0.58
2022-11-27T04:46:58.006Z,0.43
2022-11-27T04:50:02.640Z,0.59
2022-11-27T04:53:05.367Z,0.53
2022-11-27T04:56:08.429Z,0.41
2022-11-27T04:59:11.005Z,0.40
2022-11-27T05:02:13.534Z,0.40
2022-11-27T05:05:20.253Z,0.28
2022-11-27T05:08:22.983Z,0.21
2022-11-27T05:11:25.582Z,0.16
2022-11-27T05:14:29.384Z,0.12
2022-11-27T05:17:31.951Z,0.10
2022-11-27T05:20:36.006Z,0.06
2022-11-27T05:23:38.635Z,0.08
2022-11-27T05:26:41.391Z,0.13
2022-11-27T05:29:43.957Z,0.23
2022-11-27T05:32:46.620Z,0.21
2022-11-27T05:35:50.491Z,0.20
2022-11-27T05:38:52.960Z,0.16
2022-11-27T05:41:55.526Z,0.16
2022-11-27T05:44:58.722Z,0.19
2022-11-27T05:48:01.396Z,0.14
2022-11-27T05:51:06.066Z,0.15
2022-11-27T05:54:08.727Z,0.19
2022-11-27T05:57:11.616Z,0.23
2022-11-27T06:00:15.670Z,0.21
2022-11-27T06:03:18.632Z,0.17
2022-11-27T06:06:22.757Z,0.18
2022-11-27T06:09:25.737Z,0.18
2022-11-27T06:12:28.438Z,0.27
2022-11-27T06:15:31.102Z,0.21
2022-11-27T06:18:33.736Z,0.21
2022-11-27T06:21:38.111Z,0.10
2022-11-27T06:24:41.079Z,-0.02
2022-11-27T06:27:44.088Z,-0.09
2022-11-27T06:30:46.672Z,0.02
2022-11-27T06:33:50.618Z,0.13
2022-11-27T06:36:54.636Z,0.11
2022-11-27T06:39:57.303Z,0.14
2022-11-27T06:42:59.955Z,0.09
2022-11-27T06:46:03.451Z,0.13
2022-11-27T06:49:06.444Z,0.17
2022-11-27T06:52:10.462Z,0.21
2022-11-27T06:55:13.058Z,0.21
2022-11-27T06:58:15.753Z,0.20
2022-11-27T07:01:18.871Z,0.27
2022-11-27T07:04:21.570Z,0.36
2022-11-27T07:07:25.689Z,0.42
2022-11-27T07:10:28.398Z,0.53
2022-11-27T07:13:31.232Z,0.60
2022-11-27T07:16:35.962Z,0.71
2022-11-27T07:19:38.694Z,0.88
2022-11-27T07:22:43.174Z,1.00
2022-11-27T07:25:45.891Z,1.15
2022-11-27T07:28:48.851Z,1.33
2022-11-27T07:31:51.854Z,1.48
2022-11-27T07:34:54.565Z,1.32
2022-11-27T07:37:58.714Z,1.40
2022-11-27T07:41:02.045Z,1.48
2022-11-27T07:44:04.922Z,1.56
2022-11-27T07:47:07.682Z,1.63
2022-11-27T07:50:11.694Z,1.65
2022-11-27T07:53:15.777Z,1.68
2022-11-27T07:56:19.180Z,1.72
2022-11-27T07:59:21.956Z,1.79
2022-11-27T08:02:24.692Z,1.85
2022-11-27T08:05:27.400Z,1.91
2022-11-27T08:08:31.324Z,1.92
2022-11-27T08:11:35.201Z,1.95
2022-11-27T08:14:38.316Z,2.04
2022-11-27T08:17:41.318Z,2.11
2022-11-27T08:20:43.948Z,2.30
2022-11-27T08:23:48.034Z,2.31
2022-11-27T08:26:52.141Z,2.50
2022-11-27T08:29:54.901Z,2.59
2022-11-27T08:32:57.509Z,2.64
2022-11-27T08:36:00.690Z,2.84
2022-11-27T08:39:04.855Z,2.94
2022-11-27T08:42:07.505Z,2.97
2022-11-27T08:45:11.620Z,3.27
2022-11-27T08:48:14.168Z,3.26
2022-11-27T08:51:17.406Z,3.58
2022-11-27T08:54:21.477Z,3.79
2022-11-27T08:57:24.480Z,4.10
2022-11-27T09:00:28.230Z,4.43
2022-11-27T09:03:30.882Z,4.96
2022-11-27T09:06:34.887Z,5.10
2022-11-27T09:09:38.944Z,5.26
2022-11-27T09:12:43.567Z,5.43
2022-11-27T09:15:46.334Z,5.78
2022-11-27T09:18:51.390Z,5.79
2022-11-27T09:21:54.064Z,5.97
2022-11-27T09:24:58.235Z,5.93
2022-11-27T09:28:01.011Z,6.03
2022-11-27T09:31:08.279Z,5.76
2022-11-27T09:34:11.961Z,5.73
2022-11-27T09:37:14.594Z,5.93
2022-11-27T09:40:18.800Z,6.12
2022-11-27T09:43:28.145Z,6.12
2022-11-27T09:46:33.317Z,5.71
2022-11-27T09:49:39.350Z,5.53
2022-11-27T09:52:44.273Z,5.46
2022-11-27T09:55:51.111Z,5.23
2022-11-27T09:58:57.419Z,5.26
2022-11-27T10:02:00.208Z,5.50
2022-11-27T10:05:13.998Z,5.43
2022-11-27T10:08:31.408Z,5.46
2022-11-27T10:11:37.693Z,5.48
2022-11-27T10:15:00.753Z,5.50
2022-11-27T10:18:07.292Z,5.50
2022-11-27T10:21:16.671Z,5.47
2022-11-27T10:24:24.509Z,5.39
2022-11-27T10:27:34.230Z,5.32
2022-11-27T10:30:40.445Z,5.15
2022-11-27T10:33:45.095Z,5.14
2022-11-27T10:37:24.864Z,5.25
2022-11-27T10:40:31.933Z,5.46
2022-11-27T10:43:36.084Z,5.65
2022-11-27T10:46:40.339Z,5.88
2022-11-27T10:49:43.682Z,6.10
2022-11-27T10:52:52.472Z,6.26
2022-11-27T10:56:03.092Z,6.34
2022-11-27T10:59:10.537Z,6.35
2022-11-27T11:02:31.352Z,6.36
2022-11-27T11:06:04.134Z,6.45
2022-11-27T11:09:03.000Z,6.49
2022-11-27T11:12:09.138Z,6.64
2022-11-27T11:15:14.564Z,6.84
2022-11-27T11:18:18.587Z,7.09
2022-11-27T11:21:27.494Z,7.29
2022-11-27T11:24:31.389Z,7.52
2022-11-27T11:27:34.030Z,7.99
2022-11-27T11:30:39.522Z,8.31
2022-11-27T11:33:51.236Z,8.21
2022-11-27T11:36:57.844Z,8.19
2022-11-27T11:40:02.244Z,8.12
2022-11-27T11:43:10.111Z,7.89
2022-11-27T11:46:22.576Z,7.60
2022-11-27T11:49:26.295Z,7.78
2022-11-27T11:52:39.368Z,8.29
2022-11-27T11:55:46.889Z,8.62
2022-11-27T11:58:56.485Z,9.13
2022-11-27T12:02:18.191Z,10.05
2022-11-27T12:05:26.815Z,10.80
2022-11-27T12:08:40.809Z,11.26
2022-11-27T12:11:44.568Z,11.27
2022-11-27T12:14:51.905Z,11.20
2022-11-27T12:18:01.028Z,10.57
2022-11-27T12:21:12.638Z,10.26
2022-11-27T12:24:24.349Z,10.32
2022-11-27T12:27:34.582Z,10.28
2022-11-27T12:30:43.236Z,10.16
2022-11-27T12:33:58.494Z,10.10
2022-11-27T12:37:14.108Z,10.13
2022-11-27T12:40:30.297Z,10.20
2022-11-27T12:43:35.507Z,10.55
2022-11-27T12:46:44.334Z,11.17
2022-11-27T12:49:49.988Z,12.58
2022-11-27T12:53:00.145Z,12.78
2022-11-27T12:56:09.661Z,13.29
2022-11-27T12:59:15.614Z,16.06
2022-11-27T13:02:28.396Z,19.21
2022-11-27T13:05:35.956Z,19.86
2022-11-27T13:08:51.008Z,18.02
2022-11-27T13:11:55.559Z,17.79
2022-11-27T13:15:02.629Z,18.90
2022-11-27T13:18:13.370Z,19.09
2022-11-27T13:21:22.759Z,18.27
2022-11-27T13:24:27.227Z,16.97
2022-11-27T13:27:31.429Z,15.48
2022-11-27T13:30:37.053Z,14.84
2022-11-27T13:33:42.108Z,14.25
2022-11-27T13:36:48.333Z,13.66
2022-11-27T13:39:51.054Z,13.65
2022-11-27T13:42:56.464Z,13.46
2022-11-27T13:46:05.199Z,13.14
2022-11-27T13:49:08.187Z,12.78
2022-11-27T13:52:14.024Z,12.40
2022-11-27T13:55:25.060Z,12.12
2022-11-27T13:58:32.601Z,11.84
2022-11-27T14:01:35.356Z,11.74
2022-11-27T14:04:55.591Z,11.50
2022-11-27T14:08:00.781Z,11.33
2022-11-27T14:11:06.516Z,11.14
2022-11-27T14:14:16.253Z,10.98
2022-11-27T14:17:27.310Z,10.82
2022-11-27T14:20:31.660Z,10.68
2022-11-27T14:23:38.025Z,10.48
2022-11-27T14:26:42.335Z,10.53
2022-11-27T14:29:45.235Z,10.51
2022-11-27T14:32:49.017Z,10.41
2022-11-27T14:35:51.973Z,10.38
2022-11-27T14:38:56.155Z,10.27
2022-11-27T14:42:00.367Z,10.16
2022-11-27T14:45:05.130Z,10.01
2022-11-27T14:48:07.988Z,9.85
2022-11-27T14:51:15.542Z,9.86
2022-11-27T14:54:23.600Z,9.77
2022-11-27T14:57:27.619Z,9.77
2022-11-27T15:00:32.420Z,9.75
2022-11-27T15:03:35.597Z,9.67
2022-11-27T15:06:41.741Z,9.61
2022-11-27T15:09:48.179Z,9.42
2022-11-27T15:12:51.622Z,9.22
2022-11-27T15:15:57.223Z,9.09
2022-11-27T15:19:02.503Z,8.95
2022-11-27T15:22:05.824Z,8.90
2022-11-27T15:25:31.098Z,8.77
2022-11-27T15:28:36.704Z,8.67
2022-11-27T15:31:39.728Z,8.55
2022-11-27T15:34:42.749Z,8.47
2022-11-27T15:37:45.590Z,8.36
2022-11-27T15:40:59.236Z,8.34
2022-11-27T15:44:03.198Z,8.31
2022-11-27T15:47:07.380Z,8.32
2022-11-27T15:50:15.583Z,8.18
2022-11-27T15:53:18.678Z,8.16
2022-11-27T15:56:22.738Z,8.16
2022-11-27T15:59:27.254Z,8.15
2022-11-27T16:02:31.209Z,8.12
2022-11-27T16:05:34.273Z,8.07
2022-11-27T16:08:37.124Z,8.05
2022-11-27T16:11:41.579Z,7.99
2022-11-27T16:14:44.340Z,7.95
2022-11-27T16:17:47.090Z,7.92
2022-11-27T16:20:49.833Z,7.86
2022-11-27T16:23:52.746Z,7.86
2022-11-27T16:26:57.257Z,7.86
2022-11-27T16:29:59.888Z,7.79
2022-11-27T16:33:02.888Z,7.78
2022-11-27T16:36:06.971Z,7.89
2022-11-27T16:39:09.851Z,7.87
2022-11-27T16:42:14.005Z,7.87
2022-11-27T16:45:16.632Z,7.77
2022-11-27T16:48:19.391Z,7.86
2022-11-27T16:51:23.734Z,7.77
2022-11-27T16:54:26.564Z,7.78
2022-11-27T16:57:30.667Z,7.71
2022-11-27T17:00:33.357Z,7.75
2022-11-27T17:03:36.274Z,7.77
2022-11-27T17:06:39.886Z,7.78
2022-11-27T17:09:43.002Z,7.76
2022-11-27T17:12:47.091Z,7.78
2022-11-27T17:15:49.730Z,7.92
2022-11-27T17:18:52.444Z,7.83
2022-11-27T17:21:55.436Z,7.96
2022-11-27T17:24:58.648Z,8.04
2022-11-27T17:28:02.645Z,8.06
2022-11-27T17:31:10.461Z,8.11
2022-11-27T17:34:14.643Z,8.10
2022-11-27T17:37:17.687Z,8.03
2022-11-27T17:40:20.500Z,7.89
2022-11-27T17:43:25.660Z,7.84
2022-11-27T17:46:30.507Z,7.84
2022-11-27T17:49:33.297Z,7.79
2022-11-27T17:52:36.012Z,7.74
2022-11-27T17:55:38.869Z,7.75
2022-11-27T17:58:43.455Z,7.72
2022-11-27T18:01:48.359Z,7.65
2022-11-27T18:04:51.040Z,7.61
2022-11-27T18:07:54.393Z,7.57
2022-11-27T18:10:57.026Z,7.50
2022-11-27T18:14:00.987Z,7.58
2022-11-27T18:17:05.492Z,7.42
2022-11-27T18:20:09.175Z,7.45
2022-11-27T18:23:12.255Z,7.42
2022-11-27T18:26:17.311Z,7.43
2022-11-27T18:29:21.685Z,7.40
2022-11-27T18:32:24.497Z,7.49
2022-11-27T18:35:27.386Z,7.43
2022-11-27T18:38:31.570Z,7.44
2022-11-27T18:41:34.736Z,7.41
2022-11-27T18:44:44.713Z,7.39
2022-11-27T18:47:47.940Z,7.45
2022-11-27T18:50:50.651Z,7.40
2022-11-27T18:53:54.350Z,7.33
2022-11-27T18:56:57.060Z,7.29
2022-11-27T19:00:01.216Z,7.31
2022-11-27T19:03:04.149Z,7.29
2022-11-27T19:06:08.633Z,7.30
2022-11-27T19:09:12.320Z,7.33
2022-11-27T19:12:14.850Z,7.34
2022-11-27T19:15:19.680Z,7.31
2022-11-27T19:18:22.507Z,7.34
2022-11-27T19:21:27.678Z,7.33
2022-11-27T19:24:30.297Z,7.37
2022-11-27T19:27:32.868Z,7.29
2022-11-27T19:30:38.498Z,7.16
2022-11-27T19:33:41.739Z,7.06
2022-11-27T19:36:44.607Z,7.13
2022-11-27T19:39:47.405Z,7.13
2022-11-27T19:42:55.636Z,7.16
2022-11-27T19:46:03.872Z,7.12
2022-11-27T19:49:08.217Z,7.09
2022-11-27T19:52:10.772Z,7.03
2022-11-27T19:55:13.357Z,7.04
2022-11-27T19:58:16.122Z,7.08
2022-11-27T20:01:20.723Z,7.06
2022-11-27T20:04:23.740Z,7.05
2022-11-27T20:07:26.416Z,7.04
2022-11-27T20:10:29.255Z,6.95
2022-11-27T20:13:31.813Z,6.90
2022-11-27T20:16:37.307Z,6.95
2022-11-27T20:19:40.314Z,6.98
2022-11-27T20:22:43.446Z,6.96
2022-11-27T20:25:49.380Z,6.95
2022-11-27T20:28:53.514Z,6.95
2022-11-27T20:31:57.791Z,6.94
2022-11-27T20:35:00.773Z,6.95
2022-11-27T20:38:03.819Z,7.03
2022-11-27T20:41:07.876Z,7.12
2022-11-27T20:44:11.542Z,7.08
2022-11-27T20:47:15.408Z,7.09
2022-11-27T20:50:18.449Z,7.05
2022-11-27T20:53:21.284Z,7.12
2022-11-27T20:56:24.009Z,7.14
2022-11-27T20:59:26.642Z,7.05
2022-11-27T21:02:30.792Z,6.94
2022-11-27T21:05:33.734Z,6.96
2022-11-27T21:08:36.604Z,6.95
2022-11-27T21:11:39.393Z,6.90
2022-11-27T21:14:42.238Z,6.89
2022-11-27T21:17:46.307Z,6.90
2022-11-27T21:20:48.922Z,6.79
2022-11-27T21:23:51.785Z,6.79
2022-11-27T21:26:54.495Z,6.92
2022-11-27T21:29:57.266Z,6.92
2022-11-27T21:33:01.780Z,6.92
2022-11-27T21:36:05.405Z,6.91
2022-11-27T21:39:10.395Z,6.89
2022-11-27T21:42:13.261Z,6.83
2022-11-27T21:45:16.147Z,6.84
2022-11-27T21:48:20.733Z,6.88
2022-11-27T21:51:23.829Z,6.83
2022-11-27T21:54:26.647Z,6.83
2022-11-27T21:57:29.518Z,6.83
2022-11-27T22:00:32.402Z,6.88
2022-11-27T22:03:41.111Z,6.90
2022-11-27T22:06:45.481Z,6.90
2022-11-27T22:09:48.213Z,6.88
2022-11-27T22:12:50.820Z,6.91
2022-11-27T22:15:53.507Z,6.99
2022-11-27T22:18:58.805Z,7.09
2022-11-27T22:22:01.604Z,7.15
2022-11-27T22:25:04.891Z,7.15
2022-11-27T22:28:07.516Z,7.08
2022-11-27T22:31:11.137Z,7.06
2022-11-27T22:34:15.247Z,7.07
2022-11-27T22:37:18.055Z,7.02
2022-11-27T22:40:21.805Z,6.96
2022-11-27T22:43:24.503Z,7.00
2022-11-27T22:46:29.167Z,7.01
2022-11-27T22:49:33.245Z,6.96
2022-11-27T22:52:35.958Z,6.95
2022-11-27T22:55:38.711Z,6.97
2022-11-27T22:58:42.105Z,6.96
2022-11-27T23:01:44.845Z,6.94
2022-11-27T23:04:48.894Z,6.96
2022-11-27T23:07:51.923Z,6.98
2022-11-27T23:10:54.620Z,6.94
2022-11-27T23:13:58.532Z,6.98
2022-11-27T23:17:01.181Z,6.98
2022-11-27T23:20:06.547Z,6.83
2022-11-27T23:23:10.028Z,6.91
2022-11-27T23:26:18.084Z,6.84
2022-11-27T23:29:21.081Z,6.84
2022-11-27T23:32:23.764Z,6.79
2022-11-27T23:35:28.855Z,6.74
2022-11-27T23:38:31.549Z,6.72
2022-11-27T23:41:34.338Z,6.68
2022-11-27T23:44:37.254Z,6.63
2022-11-27T23:47:40.271Z,6.62
2022-11-27T23:50:44.586Z,6.62
2022-11-27T23:53:47.739Z,6.65
2022-11-27T23:56:52.650Z,6.68
2022-11-27T23:59:55.366Z,6.74
